createdAt,value
2023-04-13T00:04:23.267Z,99032.97
2023-04-13T00:09:31.461Z,99050.22
2023-04-13T00:14:39.404Z,99054.03
2023-04-13T00:19:43.540Z,99050.25
2023-04-13T00:24:46.065Z,99038.84
2023-04-13T00:29:49.570Z,99052.34
2023-04-13T00:34:52.306Z,99056.94
2023-04-13T00:39:54.270Z,99069.94
2023-04-13T00:44:56.951Z,99073.34
2023-04-13T00:50:06.825Z,99083.75
2023-04-13T00:55:15.121Z,99087.59
2023-04-13T01:00:22.548Z,99098.41
2023-04-13T01:05:27.130Z,99108.44
2023-04-13T01:10:50.779Z,99101.16
2023-04-13T01:16:20.881Z,99113.56
2023-04-13T01:21:28.844Z,99120.75
2023-04-13T01:26:47.861Z,99124.75
2023-04-13T01:31:55.049Z,99126.22
2023-04-13T01:36:58.264Z,99126.28
2023-04-13T01:42:01.565Z,99130.09
2023-04-13T01:47:16.653Z,99135.09
2023-04-13T01:52:41.648Z,99155.13
2023-04-13T01:57:49.051Z,99164.53
2023-04-13T02:02:57.229Z,99170.78
2023-04-13T02:08:01.911Z,99168.38
2023-04-13T02:13:10.181Z,99168.38
2023-04-13T02:18:18.896Z,99181.25
2023-04-13T02:23:21.707Z,99192.16
2023-04-13T02:28:24.237Z,99185.19
2023-04-13T02:33:38.582Z,99188.81
2023-04-13T02:38:40.968Z,99190.38
2023-04-13T02:43:53.073Z,99200.66
2023-04-13T02:48:58.651Z,99196.00
2023-04-13T02:54:09.877Z,99202.13
2023-04-13T02:59:15.650Z,99220.50
2023-04-13T03:04:18.392Z,99225.53
2023-04-13T03:09:23.146Z,99238.13
2023-04-13T03:14:30.390Z,99250.13
2023-04-13T03:19:41.998Z,99257.13
2023-04-13T03:24:45.486Z,99257.31
2023-04-13T03:29:58.923Z,99252.69
2023-04-13T03:41:14.541Z,99282.44
2023-04-13T03:46:23.373Z,99272.66
2023-04-13T03:51:28.265Z,99283.22
2023-04-13T03:56:32.305Z,99294.16
2023-04-13T04:01:39.835Z,99304.41
2023-04-13T04:06:47.624Z,99309.31
2023-04-13T04:11:57.047Z,99332.03
2023-04-13T04:17:15.182Z,99316.16
2023-04-13T04:22:24.742Z,99334.28
2023-04-13T04:27:28.190Z,99327.69
2023-04-13T04:32:37.543Z,99331.25
2023-04-13T04:37:49.841Z,99337.28
2023-04-13T04:42:54.894Z,99333.34
2023-04-13T04:48:06.196Z,99343.78
2023-04-13T04:53:10.021Z,99349.38
2023-04-13T04:58:12.619Z,99348.28
2023-04-13T05:03:23.394Z,99370.81
2023-04-13T05:08:36.931Z,99369.31
2023-04-13T05:13:41.340Z,99370.13
2023-04-13T05:18:59.717Z,99374.97
2023-04-13T05:24:22.875Z,99387.19
2023-04-13T05:29:26.729Z,99391.47
2023-04-13T05:34:29.421Z,99400.44
2023-04-13T05:39:42.268Z,99411.53
2023-04-13T05:44:46.006Z,99414.63
2023-04-13T05:49:52.551Z,99425.06
2023-04-13T05:54:58.075Z,99435.25
2023-04-13T06:00:00.091Z,99437.50
2023-04-13T06:05:15.948Z,99448.44
2023-04-13T06:10:19.601Z,99442.09
2023-04-13T06:15:21.699Z,99459.63
2023-04-13T06:20:23.636Z,99475.91
2023-04-13T06:25:25.558Z,99482.56
2023-04-13T06:30:27.324Z,99490.69
2023-04-13T06:35:33.234Z,99487.56
2023-04-13T06:40:35.433Z,99502.41
2023-04-13T06:45:40.593Z,99509.75
2023-04-13T06:50:46.761Z,99525.41
2023-04-13T06:55:48.553Z,99517.50
2023-04-13T07:00:51.012Z,99527.47
2023-04-13T07:05:52.813Z,99552.53
2023-04-13T07:10:55.288Z,99556.00
2023-04-13T07:16:05.448Z,99550.75
2023-04-13T07:21:10.355Z,99556.63
2023-04-13T07:26:27.559Z,99565.16
2023-04-13T07:31:30.769Z,99568.78
2023-04-13T07:36:32.780Z,99594.09
2023-04-13T07:41:40.798Z,99593.50
2023-04-13T07:46:47.904Z,99626.72
2023-04-13T07:51:53.220Z,99626.88
2023-04-13T07:56:56.721Z,99631.53
2023-04-13T08:02:02.025Z,99647.44
2023-04-13T08:07:07.322Z,99655.78
2023-04-13T08:12:09.535Z,99661.13
2023-04-13T08:17:15.353Z,99683.25
2023-04-13T08:22:17.493Z,99693.69
2023-04-13T08:27:19.821Z,99700.72
2023-04-13T08:32:21.614Z,99716.13
2023-04-13T08:37:28.153Z,99733.78
2023-04-13T08:42:30.658Z,99738.91
2023-04-13T08:47:33.677Z,99747.72
2023-04-13T08:52:37.317Z,99767.69
2023-04-13T08:57:41.164Z,99769.59
2023-04-13T09:03:00.553Z,99778.41
2023-04-13T09:08:08.106Z,99782.25
2023-04-13T09:13:12.813Z,99799.81
2023-04-13T09:18:16.116Z,99809.50
2023-04-13T09:23:24.506Z,99818.38
2023-04-13T09:28:26.640Z,99827.44
2023-04-13T09:33:28.669Z,99852.81
2023-04-13T09:38:31.323Z,99848.63
2023-04-13T09:43:40.314Z,99857.94
2023-04-13T09:48:42.100Z,99865.97
2023-04-13T09:53:47.491Z,99888.34
2023-04-13T09:58:50.463Z,99891.09
2023-04-13T10:03:52.769Z,99897.09
2023-04-13T10:08:54.555Z,99906.16
2023-04-13T10:14:00.091Z,99908.72
2023-04-13T10:19:29.527Z,99913.69
2023-04-13T10:24:31.794Z,99933.31
2023-04-13T10:29:35.411Z,99941.13
2023-04-13T10:34:39.558Z,99950.31
2023-04-13T10:39:41.219Z,99949.50
2023-04-13T10:44:51.514Z,99972.53
2023-04-13T10:49:53.257Z,99983.53
2023-04-13T10:54:55.446Z,99995.97
2023-04-13T10:59:59.329Z,100005.81
2023-04-13T11:05:02.257Z,100010.44
2023-04-13T11:10:05.974Z,100030.44
2023-04-13T11:15:08.635Z,100039.28
2023-04-13T11:20:11.383Z,100034.50
2023-04-13T11:25:13.263Z,100048.59
2023-04-13T11:30:15.562Z,100059.84
2023-04-13T11:35:18.659Z,100080.38
2023-04-13T11:40:27.414Z,100085.94
2023-04-13T11:45:30.515Z,100089.81
2023-04-13T11:50:32.779Z,100105.88
2023-04-13T11:55:52.186Z,100107.00
2023-04-13T12:00:58.330Z,100103.13
2023-04-13T12:06:05.864Z,100107.00
2023-04-13T12:11:38.979Z,100120.44
2023-04-13T12:21:39.990Z,100132.81
2023-04-13T12:27:16.978Z,100131.47
2023-04-13T12:32:15.793Z,100144.63
2023-04-13T12:37:17.625Z,100158.88
2023-04-13T12:42:19.246Z,100162.41
2023-04-13T12:47:21.070Z,100167.91
2023-04-13T12:52:22.862Z,100199.16
2023-04-13T12:57:28.542Z,100191.34
2023-04-13T13:02:31.136Z,100203.69
2023-04-13T13:07:32.989Z,100194.25
2023-04-13T13:12:34.961Z,100201.00
2023-04-13T13:17:40.546Z,100201.56
2023-04-13T13:22:42.405Z,100222.59
2023-04-13T13:32:48.758Z,100229.84
2023-04-13T13:37:50.820Z,100214.75
2023-04-13T13:42:52.942Z,100225.31
2023-04-13T13:47:55.085Z,100238.28
2023-04-13T13:53:20.700Z,100242.97
2023-04-13T13:58:22.652Z,100232.81
2023-04-13T14:03:24.604Z,100233.66
2023-04-13T14:08:26.274Z,100250.22
2023-04-13T14:13:27.933Z,100230.41
2023-04-13T14:18:29.624Z,100243.28
2023-04-13T14:23:32.091Z,100248.19
2023-04-13T14:28:34.053Z,100254.78
2023-04-13T14:33:37.668Z,100258.31
2023-04-13T14:38:39.278Z,100265.06
2023-04-13T14:43:40.958Z,100272.75
2023-04-13T14:48:42.570Z,100275.25
2023-04-13T14:53:44.484Z,100285.00
2023-04-13T14:58:46.448Z,100308.97
2023-04-13T15:03:48.994Z,100289.13
2023-04-13T15:08:51.044Z,100296.25
2023-04-13T15:13:52.630Z,100301.19
2023-04-13T15:18:54.263Z,100308.06
2023-04-13T15:23:55.854Z,100316.81
2023-04-13T15:28:57.901Z,100320.66
2023-04-13T15:33:59.694Z,100317.66
2023-04-13T15:39:02.014Z,100311.69
2023-04-13T15:44:05.710Z,100312.00
2023-04-13T15:49:07.300Z,100316.09
2023-04-13T15:54:08.981Z,100314.13
2023-04-13T15:59:10.846Z,100323.25
2023-04-13T16:04:12.686Z,100325.75
2023-04-13T16:09:14.507Z,100344.81
2023-04-13T16:14:17.402Z,100341.06
2023-04-13T16:19:19.685Z,100345.31
2023-04-13T16:24:21.414Z,100341.81
2023-04-13T16:29:24.808Z,100346.53
2023-04-13T16:34:27.976Z,100347.53
2023-04-13T16:39:29.572Z,100350.69
2023-04-13T16:44:31.232Z,100366.28
2023-04-13T16:49:34.674Z,100369.94
2023-04-13T16:54:37.231Z,100366.44
2023-04-13T16:59:39.096Z,100372.09
2023-04-13T17:04:40.876Z,100377.25
2023-04-13T17:09:42.774Z,100381.75
2023-04-13T17:14:45.516Z,100392.31
2023-04-13T17:19:47.187Z,100404.72
2023-04-13T17:24:49.203Z,100400.47
2023-04-13T17:29:50.969Z,100412.66
2023-04-13T17:34:52.852Z,100408.00
2023-04-13T17:39:54.523Z,100409.56
2023-04-13T17:44:56.658Z,100413.09
2023-04-13T17:49:59.663Z,100403.63
2023-04-13T17:55:01.389Z,100422.94
2023-04-13T18:00:06.382Z,100425.69
2023-04-13T18:05:15.172Z,100420.28
2023-04-13T18:10:17.247Z,100435.19
2023-04-13T18:15:18.930Z,100436.69
2023-04-13T18:20:20.900Z,100438.66
2023-04-13T18:25:22.553Z,100457.03
2023-04-13T18:30:24.231Z,100465.72
2023-04-13T18:35:25.950Z,100479.34
2023-04-13T18:40:27.620Z,100479.22
2023-04-13T18:45:29.297Z,100478.97
2023-04-13T18:50:31.028Z,100485.22
2023-04-13T18:55:33.205Z,100487.84
2023-04-13T19:00:39.377Z,100505.38
2023-04-13T19:05:41.028Z,100504.22
2023-04-13T19:10:42.902Z,100513.91
2023-04-13T19:15:44.559Z,100516.81
2023-04-13T19:20:46.259Z,100516.69
2023-04-13T19:25:47.940Z,100535.91
2023-04-13T19:30:49.681Z,100526.81
2023-04-13T19:35:52.485Z,100531.66
2023-04-13T19:40:54.535Z,100536.34
2023-04-13T19:45:56.272Z,100541.16
2023-04-13T19:50:57.920Z,100552.97
2023-04-13T19:55:59.614Z,100560.03
2023-04-13T20:01:02.103Z,100576.03
2023-04-13T20:06:06.576Z,100578.28
2023-04-13T20:11:08.204Z,100592.00
2023-04-13T20:16:10.754Z,100597.81
2023-04-13T20:21:12.656Z,100596.28
2023-04-13T20:26:14.393Z,100603.31
2023-04-13T20:31:16.560Z,100606.25
2023-04-13T20:36:21.191Z,100622.56
2023-04-13T20:41:24.523Z,100625.97
2023-04-13T20:46:33.844Z,100627.03
2023-04-13T20:51:39.713Z,100637.66
2023-04-13T20:56:42.271Z,100637.81
2023-04-13T21:01:44.194Z,100638.00
2023-04-13T21:06:46.769Z,100641.41
2023-04-13T21:11:49.499Z,100635.94
2023-04-13T21:16:52.496Z,100641.94
2023-04-13T21:21:55.714Z,100650.53
2023-04-13T21:26:58.714Z,100647.78
2023-04-13T21:32:01.536Z,100654.78
2023-04-13T21:37:03.394Z,100645.38
2023-04-13T21:42:09.034Z,100650.31
2023-04-13T21:47:10.646Z,100651.38
2023-04-13T21:52:12.274Z,100654.13
2023-04-13T21:57:13.885Z,100648.28
2023-04-13T22:02:16.665Z,100643.16
2023-04-13T22:07:20.432Z,100649.63
2023-04-13T22:12:29.820Z,100647.53
2023-04-13T22:17:32.087Z,100652.00
2023-04-13T22:22:33.798Z,100651.00
2023-04-13T22:27:38.932Z,100654.41
2023-04-13T22:32:41.991Z,100647.75
2023-04-13T22:37:43.707Z,100649.31
2023-04-13T22:42:45.429Z,100658.22
2023-04-13T22:47:47.046Z,100651.84
2023-04-13T22:52:48.755Z,100652.00
2023-04-13T22:57:50.666Z,100659.38
2023-04-13T23:02:56.044Z,100655.28
2023-04-13T23:07:57.907Z,100656.09
2023-04-13T23:12:59.521Z,100667.53
2023-04-13T23:18:02.737Z,100666.50
2023-04-13T23:23:05.515Z,100669.00
2023-04-13T23:28:07.408Z,100669.66
2023-04-13T23:33:09.353Z,100663.16
2023-04-13T23:38:11.191Z,100671.38
2023-04-13T23:43:12.775Z,100678.03
2023-04-13T23:48:14.424Z,100677.78
2023-04-13T23:53:16.691Z,100677.22
2023-04-13T23:58:18.351Z,100678.09
